createdAt,value
2023-03-02T00:01:37.990Z,66.17
2023-03-02T00:04:45.987Z,66.46
2023-03-02T00:07:47.968Z,66.42
2023-03-02T00:10:50.011Z,66.65
2023-03-02T00:13:51.956Z,66.78
2023-03-02T00:16:53.978Z,66.73
2023-03-02T00:20:11.561Z,66.65
2023-03-02T00:23:13.940Z,66.65
2023-03-02T00:26:16.057Z,66.51
2023-03-02T00:29:18.287Z,66.20
2023-03-02T00:32:20.278Z,66.11
2023-03-02T00:35:22.331Z,65.95
2023-03-02T00:38:24.399Z,65.96
2023-03-02T00:41:26.747Z,66.07
2023-03-02T00:44:28.865Z,66.28
2023-03-02T00:47:35.415Z,65.67
2023-03-02T00:50:41.229Z,65.73
2023-03-02T00:53:43.226Z,65.62
2023-03-02T00:56:45.344Z,65.46
2023-03-02T00:59:47.471Z,65.65
2023-03-02T01:03:00.150Z,65.40
2023-03-02T01:06:02.990Z,65.77
2023-03-02T01:09:04.971Z,66.11
2023-03-02T01:12:10.508Z,65.92
2023-03-02T01:15:12.691Z,65.98
2023-03-02T01:18:14.910Z,66.06
2023-03-02T01:21:16.936Z,66.07
2023-03-02T01:24:18.937Z,65.99
2023-03-02T01:27:21.037Z,65.82
2023-03-02T01:30:23.120Z,65.73
2023-03-02T01:33:25.080Z,66.01
2023-03-02T01:36:27.103Z,65.53
2023-03-02T01:39:29.113Z,65.67
2023-03-02T01:42:37.574Z,65.21
2023-03-02T01:45:52.270Z,64.68
2023-03-02T01:49:14.833Z,65.26
2023-03-02T01:52:38.429Z,65.32
2023-03-02T01:55:44.565Z,65.32
2023-03-02T01:58:48.717Z,65.56
2023-03-02T02:01:55.107Z,65.89
2023-03-02T02:04:57.643Z,65.71
2023-03-02T02:07:59.712Z,66.10
2023-03-02T02:11:01.876Z,65.82
2023-03-02T02:14:04.238Z,66.06
2023-03-02T02:17:06.328Z,65.55
2023-03-02T02:20:24.264Z,65.28
2023-03-02T02:23:27.143Z,65.70
2023-03-02T02:26:37.238Z,66.00
2023-03-02T02:29:49.555Z,65.77
2023-03-02T02:32:54.022Z,66.17
2023-03-02T02:36:04.029Z,65.81
2023-03-02T02:39:10.602Z,66.06
2023-03-02T02:42:24.494Z,65.58
2023-03-02T02:45:27.653Z,65.43
2023-03-02T02:48:32.203Z,65.90
2023-03-02T02:51:35.659Z,65.58
2023-03-02T02:54:38.788Z,65.95
2023-03-02T02:57:41.741Z,66.17
2023-03-02T03:00:43.792Z,66.37
2023-03-02T03:03:51.278Z,65.69
2023-03-02T03:06:54.893Z,65.89
2023-03-02T03:10:35.213Z,65.70
2023-03-02T03:13:38.927Z,66.18
2023-03-02T03:16:44.522Z,65.76
2023-03-02T03:19:47.731Z,65.60
2023-03-02T03:22:53.577Z,65.20
2023-03-02T03:25:56.466Z,65.53
2023-03-02T03:28:59.036Z,65.68
2023-03-02T03:32:02.377Z,66.05
2023-03-02T03:35:08.807Z,66.14
2023-03-02T03:38:11.390Z,66.63
2023-03-02T03:41:13.484Z,66.72
2023-03-02T03:44:15.700Z,66.76
2023-03-02T03:47:19.328Z,67.04
2023-03-02T03:50:22.094Z,67.33
2023-03-02T03:53:24.122Z,67.45
2023-03-02T03:56:31.997Z,67.66
2023-03-02T03:59:34.297Z,67.80
2023-03-02T04:02:38.369Z,67.79
2023-03-02T04:05:41.229Z,68.00
2023-03-02T04:08:43.219Z,68.08
2023-03-02T04:11:47.305Z,68.05
2023-03-02T04:14:49.824Z,68.49
2023-03-02T04:17:52.792Z,68.76
2023-03-02T04:20:56.645Z,68.18
2023-03-02T04:23:58.645Z,68.37
2023-03-02T04:27:00.765Z,68.31
2023-03-02T04:30:04.114Z,68.60
2023-03-02T04:33:06.180Z,68.56
2023-03-02T04:36:09.696Z,68.25
2023-03-02T04:39:15.037Z,68.21
2023-03-02T04:42:21.101Z,68.07
2023-03-02T04:45:23.098Z,68.09
2023-03-02T04:48:25.856Z,68.19
2023-03-02T04:51:33.786Z,67.99
2023-03-02T04:54:35.758Z,67.78
2023-03-02T04:57:37.743Z,67.94
2023-03-02T05:00:40.001Z,67.67
2023-03-02T05:03:42.019Z,67.68
2023-03-02T05:06:43.982Z,67.62
2023-03-02T05:09:46.010Z,67.77
2023-03-02T05:13:05.131Z,68.34
2023-03-02T05:16:07.440Z,68.42
2023-03-02T05:19:10.922Z,68.62
2023-03-02T05:22:12.918Z,68.87
2023-03-02T05:25:15.002Z,68.39
2023-03-02T05:28:17.991Z,68.27
2023-03-02T05:31:29.515Z,68.45
2023-03-02T05:34:31.490Z,68.77
2023-03-02T05:37:33.534Z,68.82
2023-03-02T05:40:36.689Z,68.82
2023-03-02T05:43:39.707Z,68.59
2023-03-02T05:46:41.840Z,69.08
2023-03-02T05:49:43.932Z,69.01
2023-03-02T05:52:46.553Z,68.97
2023-03-02T05:55:48.978Z,68.86
2023-03-02T05:58:50.930Z,68.81
2023-03-02T06:01:58.917Z,69.03
2023-03-02T06:05:01.052Z,68.98
2023-03-02T06:08:03.915Z,68.89
2023-03-02T06:11:05.847Z,69.01
2023-03-02T06:14:07.785Z,68.89
2023-03-02T06:17:10.616Z,68.63
2023-03-02T06:20:14.314Z,68.58
2023-03-02T06:23:17.096Z,68.94
2023-03-02T06:26:19.093Z,69.15
2023-03-02T06:29:21.965Z,68.96
2023-03-02T06:32:24.042Z,68.83
2023-03-02T06:35:26.123Z,69.22
2023-03-02T06:38:28.136Z,69.28
2023-03-02T06:41:30.233Z,68.96
2023-03-02T06:44:32.471Z,69.01
2023-03-02T06:47:34.900Z,68.62
2023-03-02T06:50:36.908Z,68.57
2023-03-02T06:53:38.944Z,68.58
2023-03-02T06:56:41.214Z,68.49
2023-03-02T06:59:43.226Z,68.88
2023-03-02T07:02:45.481Z,68.67
2023-03-02T07:05:49.238Z,68.93
2023-03-02T07:08:51.205Z,68.73
2023-03-02T07:11:53.119Z,68.56
2023-03-02T07:14:55.165Z,68.39
2023-03-02T07:17:57.187Z,68.38
2023-03-02T07:20:59.081Z,68.43
2023-03-02T07:24:01.069Z,68.18
2023-03-02T07:27:03.185Z,67.76
2023-03-02T07:30:06.194Z,68.23
2023-03-02T07:33:08.148Z,67.55
2023-03-02T07:36:10.313Z,67.21
2023-03-02T07:39:12.245Z,66.94
2023-03-02T07:42:14.210Z,67.38
2023-03-02T07:45:22.129Z,66.68
2023-03-02T07:48:24.115Z,66.88
2023-03-02T07:51:26.818Z,66.58
2023-03-02T07:54:30.580Z,66.77
2023-03-02T07:57:32.530Z,67.00
2023-03-02T08:00:36.887Z,66.75
2023-03-02T08:03:39.124Z,66.39
2023-03-02T08:06:42.530Z,66.24
2023-03-02T08:09:44.781Z,65.89
2023-03-02T08:12:46.728Z,64.90
2023-03-02T08:15:48.671Z,63.72
2023-03-02T08:18:50.844Z,62.87
2023-03-02T08:21:52.914Z,52.13
2023-03-02T08:24:54.857Z,43.14
2023-03-02T08:27:56.838Z,35.15
2023-03-02T08:31:00.351Z,30.73
2023-03-02T08:34:02.583Z,27.48
2023-03-02T08:37:04.688Z,26.51
2023-03-02T08:40:07.405Z,28.59
2023-03-02T08:43:09.393Z,31.79
2023-03-02T08:46:13.554Z,35.38
2023-03-02T08:49:16.758Z,35.17
2023-03-02T08:52:18.875Z,35.44
2023-03-02T08:55:21.016Z,36.35
2023-03-02T08:58:23.229Z,38.91
2023-03-02T09:01:32.229Z,40.67
2023-03-02T09:04:35.534Z,42.51
2023-03-02T09:07:37.484Z,42.91
2023-03-02T09:10:39.939Z,43.59
2023-03-02T09:13:42.227Z,42.35
2023-03-02T09:16:45.636Z,42.08
2023-03-02T09:19:47.693Z,43.01
2023-03-02T09:22:51.161Z,43.15
2023-03-02T09:25:54.025Z,42.70
2023-03-02T09:28:56.378Z,44.15
2023-03-02T09:31:58.571Z,42.75
2023-03-02T09:35:00.629Z,42.67
2023-03-02T09:38:02.691Z,43.19
2023-03-02T09:41:31.749Z,43.30
2023-03-02T09:44:50.309Z,43.11
2023-03-02T09:48:35.526Z,43.27
2023-03-02T09:51:55.563Z,43.84
2023-03-02T09:55:11.578Z,43.10
2023-03-02T09:58:19.140Z,42.08
2023-03-02T10:01:34.323Z,41.95
2023-03-02T10:04:58.343Z,41.04
2023-03-02T10:08:01.005Z,40.95
2023-03-02T10:11:26.991Z,40.53
2023-03-02T10:14:39.735Z,39.82
2023-03-02T10:18:01.053Z,39.48
2023-03-02T10:21:13.956Z,38.48
2023-03-02T10:24:34.449Z,38.29
2023-03-02T10:27:44.257Z,38.01
2023-03-02T10:30:51.931Z,37.48
2023-03-02T10:33:54.364Z,36.93
2023-03-02T10:36:56.392Z,36.54
2023-03-02T10:39:58.498Z,36.03
2023-03-02T10:43:01.194Z,35.86
2023-03-02T10:46:09.118Z,35.56
2023-03-02T10:49:31.504Z,35.76
2023-03-02T10:52:34.580Z,35.64
2023-03-02T10:55:45.872Z,35.68
2023-03-02T10:58:48.149Z,35.78
2023-03-02T11:02:02.772Z,35.00
2023-03-02T11:05:26.733Z,35.32
2023-03-02T11:08:29.253Z,35.63
2023-03-02T11:11:32.694Z,36.43
2023-03-02T11:14:35.065Z,36.17
2023-03-02T11:17:39.190Z,36.38
2023-03-02T11:20:47.783Z,36.33
2023-03-02T11:24:15.530Z,36.51
2023-03-02T11:27:26.814Z,36.92
2023-03-02T11:30:34.372Z,37.02
2023-03-02T11:34:11.679Z,37.15
2023-03-02T11:37:28.485Z,38.15
2023-03-02T11:40:43.079Z,38.28
2023-03-02T11:43:45.432Z,38.63
2023-03-02T11:46:51.541Z,38.22
2023-03-02T11:49:56.433Z,37.89
2023-03-02T11:53:01.782Z,37.44
2023-03-02T11:56:03.994Z,37.28
2023-03-02T11:59:19.831Z,36.46
2023-03-02T12:02:23.221Z,35.63
2023-03-02T12:05:28.545Z,36.00
2023-03-02T12:08:32.448Z,36.14
2023-03-02T12:11:39.676Z,35.73
2023-03-02T12:14:43.452Z,35.84
2023-03-02T12:17:45.513Z,35.62
2023-03-02T12:21:04.541Z,33.58
2023-03-02T12:24:20.661Z,33.55
2023-03-02T12:27:27.423Z,31.39
2023-03-02T12:30:30.683Z,31.52
2023-03-02T12:33:32.719Z,32.14
2023-03-02T12:36:43.442Z,32.28
2023-03-02T12:40:08.080Z,31.62
2023-03-02T12:43:22.016Z,31.70
2023-03-02T12:46:34.193Z,31.53
2023-03-02T12:49:49.801Z,31.01
2023-03-02T12:53:02.236Z,31.37
2023-03-02T12:56:04.478Z,31.35
2023-03-02T12:59:06.807Z,31.85
2023-03-02T13:02:11.549Z,31.05
2023-03-02T13:05:19.063Z,33.57
2023-03-02T13:08:25.491Z,31.87
2023-03-02T13:11:37.000Z,33.35
2023-03-02T13:14:42.679Z,33.02
2023-03-02T13:17:52.193Z,31.78
2023-03-02T13:20:54.587Z,31.68
2023-03-02T13:23:56.604Z,31.58
2023-03-02T13:27:07.702Z,32.23
2023-03-02T13:30:25.067Z,32.79
2023-03-02T13:33:29.285Z,33.47
2023-03-02T13:36:37.647Z,32.94
2023-03-02T13:39:39.684Z,33.30
2023-03-02T13:42:41.702Z,33.71
2023-03-02T13:45:55.761Z,33.59
2023-03-02T13:49:10.606Z,33.36
2023-03-02T13:52:45.321Z,33.11
2023-03-02T13:55:47.904Z,33.14
2023-03-02T13:58:49.902Z,33.00
2023-03-02T14:01:51.885Z,32.22
2023-03-02T14:04:54.912Z,32.80
2023-03-02T14:07:56.928Z,32.87
2023-03-02T14:11:01.267Z,33.15
2023-03-02T14:14:05.297Z,33.96
2023-03-02T14:17:14.990Z,34.09
2023-03-02T14:20:19.686Z,33.68
2023-03-02T14:23:21.769Z,33.82
2023-03-02T14:26:23.652Z,34.60
2023-03-02T14:29:34.854Z,34.83
2023-03-02T14:32:36.877Z,34.71
2023-03-02T14:35:38.815Z,35.22
2023-03-02T14:38:40.877Z,35.47
2023-03-02T14:41:52.965Z,35.36
2023-03-02T14:44:55.590Z,36.34
2023-03-02T14:47:57.584Z,36.10
2023-03-02T14:51:02.755Z,36.66
2023-03-02T14:54:08.836Z,36.23
2023-03-02T14:57:18.869Z,36.15
2023-03-02T15:00:21.477Z,36.12
2023-03-02T15:03:25.752Z,36.57
2023-03-02T15:06:30.527Z,36.64
2023-03-02T15:09:32.650Z,36.55
2023-03-02T15:12:34.639Z,36.33
2023-03-02T15:15:37.798Z,37.52
2023-03-02T15:18:40.337Z,37.20
2023-03-02T15:21:45.305Z,37.37
2023-03-02T15:28:02.402Z,37.37
2023-03-02T15:31:09.316Z,37.75
2023-03-02T15:34:11.949Z,37.70
2023-03-02T15:37:14.110Z,38.21
2023-03-02T15:40:16.285Z,38.51
2023-03-02T15:43:18.249Z,38.45
2023-03-02T15:46:24.174Z,37.23
2023-03-02T15:49:28.676Z,39.78
2023-03-02T15:52:30.665Z,40.80
2023-03-02T15:55:32.708Z,40.62
2023-03-02T15:58:35.997Z,42.88
2023-03-02T16:01:38.027Z,43.08
2023-03-02T16:04:40.105Z,42.77
2023-03-02T16:07:42.626Z,43.34
2023-03-02T16:10:44.777Z,43.53
2023-03-02T16:13:47.002Z,45.09
2023-03-02T16:16:49.381Z,44.99
2023-03-02T16:19:51.516Z,45.61
2023-03-02T16:22:53.585Z,46.21
2023-03-02T16:26:05.711Z,47.18
2023-03-02T16:29:10.488Z,47.31
2023-03-02T16:32:12.840Z,48.21
2023-03-02T16:35:15.012Z,48.37
2023-03-02T16:38:17.372Z,48.86
2023-03-02T16:41:22.282Z,49.57
2023-03-02T16:44:26.122Z,50.27
2023-03-02T16:47:28.225Z,50.48
2023-03-02T16:50:30.421Z,50.26
2023-03-02T16:53:32.928Z,50.41
2023-03-02T16:56:35.450Z,51.24
2023-03-02T16:59:38.096Z,51.63
2023-03-02T17:02:40.533Z,52.26
2023-03-02T17:05:44.005Z,52.74
2023-03-02T17:08:46.544Z,52.91
2023-03-02T17:11:48.651Z,53.94
2023-03-02T17:14:50.839Z,54.19
2023-03-02T17:17:54.257Z,54.43
2023-03-02T17:20:58.848Z,54.75
2023-03-02T17:24:00.977Z,55.14
2023-03-02T17:27:04.218Z,55.42
2023-03-02T17:30:09.088Z,54.87
2023-03-02T17:33:12.085Z,56.06
2023-03-02T17:36:15.673Z,56.18
2023-03-02T17:39:17.937Z,56.46
2023-03-02T17:42:21.519Z,56.33
2023-03-02T17:45:26.906Z,56.69
2023-03-02T17:48:29.339Z,57.07
2023-03-02T17:51:32.242Z,57.51
2023-03-02T17:54:35.174Z,57.78
2023-03-02T17:57:37.504Z,57.83
2023-03-02T18:00:41.412Z,58.21
2023-03-02T18:03:45.370Z,58.54
2023-03-02T18:06:47.987Z,58.58
2023-03-02T18:09:50.362Z,59.03
2023-03-02T18:12:54.738Z,59.37
2023-03-02T18:15:57.218Z,59.11
2023-03-02T18:18:59.669Z,59.44
2023-03-02T18:22:02.462Z,59.58
2023-03-02T18:25:07.123Z,59.79
2023-03-02T18:28:10.054Z,59.77
2023-03-02T18:31:16.227Z,59.94
2023-03-02T18:34:20.236Z,59.91
2023-03-02T18:37:23.092Z,60.39
2023-03-02T18:40:26.147Z,59.99
2023-03-02T18:43:30.612Z,60.57
2023-03-02T18:46:34.120Z,60.75
2023-03-02T18:49:38.911Z,60.87
2023-03-02T18:52:41.731Z,60.92
2023-03-02T18:55:44.412Z,61.02
2023-03-02T18:58:48.853Z,61.62
2023-03-02T19:01:53.118Z,61.56
2023-03-02T19:04:56.294Z,61.89
2023-03-02T19:07:59.316Z,61.39
2023-03-02T19:11:02.180Z,61.93
2023-03-02T19:14:05.167Z,61.84
2023-03-02T19:17:07.336Z,61.68
2023-03-02T19:20:16.556Z,61.81
2023-03-02T19:23:19.733Z,61.96
2023-03-02T19:26:22.915Z,61.98
2023-03-02T19:29:25.564Z,62.00
2023-03-02T19:32:31.101Z,62.16
2023-03-02T19:35:35.009Z,62.34
2023-03-02T19:38:43.272Z,62.75
2023-03-02T19:41:47.728Z,62.85
2023-03-02T19:44:50.789Z,62.56
2023-03-02T19:47:55.266Z,62.91
2023-03-02T19:51:00.307Z,62.66
2023-03-02T19:54:04.451Z,62.80
2023-03-02T19:57:10.414Z,62.82
2023-03-02T20:00:16.734Z,63.03
2023-03-02T20:03:19.963Z,63.63
2023-03-02T20:06:26.470Z,63.12
2023-03-02T20:09:30.762Z,63.23
2023-03-02T20:12:34.265Z,63.37
2023-03-02T20:15:40.496Z,63.56
2023-03-02T20:18:43.680Z,63.58
2023-03-02T20:21:46.735Z,63.46
2023-03-02T20:24:49.820Z,63.27
2023-03-02T20:27:53.710Z,63.60
2023-03-02T20:30:59.950Z,63.76
2023-03-02T20:34:06.694Z,63.96
2023-03-02T20:37:14.996Z,63.73
2023-03-02T20:40:18.698Z,63.80
2023-03-02T20:43:22.155Z,63.90
2023-03-02T20:46:33.048Z,64.16
2023-03-02T20:49:37.751Z,64.17
2023-03-02T20:52:41.444Z,64.31
2023-03-02T20:55:45.380Z,64.19
2023-03-02T20:58:49.438Z,64.64
2023-03-02T21:01:52.495Z,64.34
2023-03-02T21:04:55.073Z,64.98
2023-03-02T21:07:58.318Z,64.74
2023-03-02T21:11:01.600Z,64.90
2023-03-02T21:14:05.115Z,65.14
2023-03-02T21:17:09.022Z,65.05
2023-03-02T21:20:12.794Z,65.08
2023-03-02T21:23:16.498Z,65.28
2023-03-02T21:26:19.033Z,65.55
2023-03-02T21:29:23.771Z,65.48
2023-03-02T21:32:26.388Z,65.37
2023-03-02T21:35:28.887Z,65.38
2023-03-02T21:38:31.236Z,65.52
2023-03-02T21:41:36.053Z,65.74
2023-03-02T21:44:38.109Z,65.84
2023-03-02T21:47:43.939Z,65.83
2023-03-02T21:50:46.041Z,65.60
2023-03-02T21:53:48.142Z,65.49
2023-03-02T21:56:50.147Z,65.78
2023-03-02T21:59:54.828Z,66.10
2023-03-02T22:02:56.866Z,66.36
2023-03-02T22:05:58.871Z,66.27
2023-03-02T22:09:01.827Z,66.04
2023-03-02T22:12:12.036Z,66.05
2023-03-02T22:15:14.995Z,66.12
2023-03-02T22:18:22.568Z,66.19
2023-03-02T22:21:30.182Z,66.23
2023-03-02T22:24:33.847Z,66.43
2023-03-02T22:27:35.776Z,66.56
2023-03-02T22:30:37.760Z,66.55
2023-03-02T22:33:41.355Z,66.16
2023-03-02T22:36:43.418Z,66.40
2023-03-02T22:39:46.266Z,66.43
2023-03-02T22:42:48.236Z,66.38
2023-03-02T22:45:50.777Z,66.56
2023-03-02T22:48:53.696Z,66.41
2023-03-02T22:52:00.950Z,66.34
2023-03-02T22:55:42.608Z,66.59
2023-03-02T22:58:50.669Z,66.83
2023-03-02T23:01:57.914Z,66.62
2023-03-02T23:04:59.873Z,66.46
2023-03-02T23:08:26.300Z,66.50
2023-03-02T23:11:31.699Z,66.47
2023-03-02T23:14:42.679Z,66.84
2023-03-02T23:17:46.796Z,66.58
2023-03-02T23:20:49.580Z,66.64
2023-03-02T23:23:51.519Z,66.47
2023-03-02T23:26:53.593Z,66.27
2023-03-02T23:29:55.729Z,66.63
2023-03-02T23:32:57.778Z,66.45
2023-03-02T23:36:00.303Z,66.30
2023-03-02T23:39:02.258Z,66.54
2023-03-02T23:42:04.387Z,66.61
2023-03-02T23:45:06.998Z,66.79
2023-03-02T23:48:08.963Z,66.73
2023-03-02T23:51:11.150Z,66.93
2023-03-02T23:54:13.298Z,67.02
2023-03-02T23:57:15.409Z,67.27
